createdAt,value
2022-11-14T00:02:29.983Z,17.63
2022-11-14T00:05:35.441Z,20.93
2022-11-14T00:08:38.167Z,18.13
2022-11-14T00:11:40.884Z,16.43
2022-11-14T00:14:43.642Z,16.83
2022-11-14T00:17:46.719Z,18.83
2022-11-14T00:20:52.461Z,20.37
2022-11-14T00:23:55.419Z,21.10
2022-11-14T00:26:58.190Z,19.47
2022-11-14T00:30:00.903Z,20.83
2022-11-14T00:33:04.053Z,21.70
2022-11-14T00:36:08.585Z,18.83
2022-11-14T00:39:13.894Z,19.90
2022-11-14T00:42:16.538Z,18.10
2022-11-14T00:45:19.502Z,20.90
2022-11-14T00:48:22.384Z,21.83
2022-11-14T00:51:26.621Z,20.27
2022-11-14T00:54:29.273Z,19.63
2022-11-14T00:57:32.326Z,24.33
2022-11-14T01:00:35.524Z,20.97
2022-11-14T01:03:38.251Z,25.10
2022-11-14T01:06:42.654Z,18.33
2022-11-14T01:09:45.775Z,16.47
2022-11-14T01:12:48.742Z,20.57
2022-11-14T01:15:52.429Z,19.57
2022-11-14T01:18:55.094Z,22.10
2022-11-14T01:22:03.227Z,19.77
2022-11-14T01:25:09.620Z,17.73
2022-11-14T01:28:15.037Z,19.13
2022-11-14T01:31:19.875Z,21.83
2022-11-14T01:34:22.650Z,20.50
2022-11-14T01:37:26.727Z,19.83
2022-11-14T01:40:29.546Z,18.00
2022-11-14T01:43:34.426Z,19.47
2022-11-14T01:46:40.100Z,20.13
2022-11-14T01:49:46.925Z,24.90
2022-11-14T01:52:51.330Z,21.43
2022-11-14T01:55:56.355Z,20.13
2022-11-14T01:59:04.771Z,19.93
2022-11-14T02:02:13.461Z,21.10
2022-11-14T02:05:18.449Z,19.60
2022-11-14T02:08:24.293Z,16.73
2022-11-14T02:11:30.982Z,19.07
2022-11-14T02:14:35.527Z,19.03
2022-11-14T02:17:38.218Z,22.03
2022-11-14T02:20:43.802Z,20.77
2022-11-14T02:23:46.516Z,17.83
2022-11-14T02:26:49.249Z,30.00
2022-11-14T02:29:51.995Z,21.77
2022-11-14T02:33:10.391Z,24.73
2022-11-14T02:36:15.566Z,22.00
2022-11-14T02:39:18.710Z,22.23
2022-11-14T02:42:21.466Z,20.60
2022-11-14T02:45:24.625Z,21.90
2022-11-14T02:48:27.437Z,25.37
2022-11-14T02:51:32.015Z,23.03
2022-11-14T02:54:34.706Z,20.67
2022-11-14T02:57:37.842Z,20.93
2022-11-14T03:01:05.990Z,27.53
2022-11-14T03:04:04.594Z,22.17
2022-11-14T03:07:08.776Z,23.03
2022-11-14T03:10:12.039Z,20.57
2022-11-14T03:13:15.263Z,22.73
2022-11-14T03:16:18.373Z,22.60
2022-11-14T03:19:21.280Z,24.77
2022-11-14T03:22:25.773Z,23.40
2022-11-14T03:25:28.836Z,19.40
2022-11-14T03:28:31.870Z,26.27
2022-11-14T03:31:35.432Z,21.37
2022-11-14T03:34:38.539Z,21.80
2022-11-14T03:37:43.091Z,21.33
2022-11-14T03:40:45.968Z,20.73
2022-11-14T03:43:48.708Z,25.27
2022-11-14T03:46:53.151Z,20.27
2022-11-14T03:49:55.816Z,20.73
2022-11-14T03:53:00.277Z,26.30
2022-11-14T03:56:03.333Z,25.13
2022-11-14T03:59:06.669Z,27.53
2022-11-14T04:02:09.786Z,17.20
2022-11-14T04:05:13.266Z,27.27
2022-11-14T04:08:17.473Z,21.20
2022-11-14T04:11:20.699Z,20.33
2022-11-14T04:14:23.413Z,24.80
2022-11-14T04:17:26.539Z,29.83
2022-11-14T04:20:29.196Z,24.13
2022-11-14T04:23:33.817Z,24.93
2022-11-14T04:26:36.483Z,24.43
2022-11-14T04:29:39.200Z,24.83
2022-11-14T04:32:41.916Z,24.63
2022-11-14T04:35:44.731Z,24.13
2022-11-14T04:38:49.188Z,27.73
2022-11-14T04:41:52.231Z,27.67
2022-11-14T04:44:55.374Z,35.77
2022-11-14T04:47:58.057Z,28.83
2022-11-14T04:51:00.984Z,25.33
2022-11-14T04:54:05.241Z,25.07
2022-11-14T04:57:07.952Z,29.97
2022-11-14T05:00:11.983Z,27.70
2022-11-14T05:03:14.912Z,33.23
2022-11-14T05:06:18.065Z,36.07
2022-11-14T05:09:22.082Z,35.57
2022-11-14T05:12:25.113Z,34.77
2022-11-14T05:15:27.827Z,33.97
2022-11-14T05:18:31.118Z,36.40
2022-11-14T05:21:34.118Z,35.20
2022-11-14T05:24:38.720Z,31.03
2022-11-14T05:27:41.733Z,32.27
2022-11-14T05:30:44.413Z,28.00
2022-11-14T05:33:48.291Z,32.60
2022-11-14T05:36:51.016Z,33.33
2022-11-14T05:39:55.551Z,34.80
2022-11-14T05:42:58.271Z,34.50
2022-11-14T05:46:02.162Z,30.73
2022-11-14T05:49:04.885Z,38.70
2022-11-14T05:52:07.950Z,33.73
2022-11-14T05:55:12.418Z,32.63
2022-11-14T05:58:15.216Z,25.53
2022-11-14T06:01:20.527Z,27.80
2022-11-14T06:04:23.639Z,28.67
2022-11-14T06:07:26.372Z,30.70
2022-11-14T06:10:30.938Z,31.03
2022-11-14T06:13:34.764Z,35.50
2022-11-14T06:16:37.503Z,55.30
2022-11-14T06:19:40.212Z,38.37
2022-11-14T06:22:43.102Z,36.13
2022-11-14T06:25:47.180Z,33.60
2022-11-14T06:28:50.778Z,30.07
2022-11-14T06:31:53.453Z,41.80
2022-11-14T06:34:56.306Z,35.50
2022-11-14T06:38:00.863Z,30.80
2022-11-14T06:41:06.150Z,34.70
2022-11-14T06:44:09.661Z,34.20
2022-11-14T06:47:12.652Z,36.97
2022-11-14T06:50:15.448Z,37.50
2022-11-14T06:53:18.204Z,36.10
2022-11-14T06:56:22.629Z,24.53
2022-11-14T06:59:26.267Z,25.63
2022-11-14T07:02:29.001Z,29.07
2022-11-14T07:05:31.748Z,26.57
2022-11-14T07:08:35.389Z,32.20
2022-11-14T07:11:39.963Z,40.07
2022-11-14T07:14:42.702Z,34.60
2022-11-14T07:17:45.475Z,30.50
2022-11-14T07:20:48.720Z,32.23
2022-11-14T07:23:51.818Z,37.97
2022-11-14T07:26:55.839Z,30.73
2022-11-14T07:29:58.843Z,29.43
2022-11-14T07:33:01.934Z,35.43
2022-11-14T07:36:05.212Z,31.37
2022-11-14T07:39:08.175Z,31.97
2022-11-14T07:42:12.294Z,32.83
2022-11-14T07:45:15.802Z,31.17
2022-11-14T07:48:19.464Z,28.73
2022-11-14T07:51:22.577Z,20.30
2022-11-14T07:54:25.313Z,31.00
2022-11-14T07:57:29.431Z,31.20
2022-11-14T08:00:32.700Z,30.47
2022-11-14T08:03:37.919Z,30.07
2022-11-14T08:06:44.193Z,29.93
2022-11-14T08:09:46.921Z,28.57
2022-11-14T08:13:17.485Z,28.27
2022-11-14T08:16:22.342Z,27.50
2022-11-14T08:19:26.486Z,28.00
2022-11-14T08:22:29.409Z,24.77
2022-11-14T08:25:32.095Z,29.60
2022-11-14T08:28:36.588Z,28.47
2022-11-14T08:31:39.394Z,24.60
2022-11-14T08:34:42.361Z,20.53
2022-11-14T08:37:45.525Z,27.13
2022-11-14T08:40:48.397Z,24.63
2022-11-14T08:43:52.803Z,24.90
2022-11-14T08:46:55.545Z,20.20
2022-11-14T08:49:58.417Z,26.17
2022-11-14T08:53:01.177Z,25.70
2022-11-14T08:56:04.429Z,21.77
2022-11-14T08:59:08.413Z,21.77
2022-11-14T09:02:12.460Z,25.47
2022-11-14T09:05:15.507Z,23.17
2022-11-14T09:08:18.336Z,22.97
2022-11-14T09:11:21.259Z,28.40
2022-11-14T09:14:25.963Z,23.70
2022-11-14T09:17:28.784Z,16.30
2022-11-14T09:20:34.178Z,22.13
2022-11-14T09:23:40.365Z,20.43
2022-11-14T09:26:43.091Z,21.93
2022-11-14T09:29:47.591Z,15.20
2022-11-14T09:32:50.371Z,20.43
2022-11-14T09:35:57.966Z,17.07
2022-11-14T09:39:00.739Z,22.67
2022-11-14T09:42:20.291Z,25.10
2022-11-14T09:45:25.391Z,20.17
2022-11-14T09:48:32.160Z,28.73
2022-11-14T09:51:44.143Z,21.20
2022-11-14T09:54:53.073Z,22.27
2022-11-14T09:57:56.515Z,17.70
2022-11-14T10:01:09.499Z,18.17
2022-11-14T10:04:25.052Z,20.27
2022-11-14T10:07:39.076Z,20.90
2022-11-14T10:10:52.916Z,19.00
2022-11-14T10:14:20.587Z,21.67
2022-11-14T10:17:45.791Z,15.57
2022-11-14T10:20:55.034Z,16.17
2022-11-14T10:24:07.359Z,18.23
2022-11-14T10:27:19.523Z,20.53
2022-11-14T10:30:36.720Z,15.57
2022-11-14T10:33:51.635Z,14.80
2022-11-14T10:37:04.188Z,20.27
2022-11-14T10:40:18.920Z,15.27
2022-11-14T10:43:28.411Z,16.37
2022-11-14T10:46:37.963Z,12.40
2022-11-14T10:49:43.320Z,19.30
2022-11-14T10:52:47.601Z,14.73
2022-11-14T10:56:04.324Z,18.70
2022-11-14T10:59:10.178Z,17.37
2022-11-14T11:02:13.097Z,17.67
2022-11-14T11:05:19.555Z,17.60
2022-11-14T11:08:43.784Z,18.50
2022-11-14T11:11:57.340Z,15.90
2022-11-14T11:15:15.987Z,17.37
2022-11-14T11:18:27.852Z,22.40
2022-11-14T11:21:48.832Z,23.87
2022-11-14T11:24:51.682Z,25.10
2022-11-14T11:28:09.265Z,32.43
2022-11-14T11:31:12.475Z,16.37
2022-11-14T11:34:15.271Z,16.97
2022-11-14T11:37:22.994Z,14.37
2022-11-14T11:40:28.139Z,27.43
2022-11-14T11:43:53.921Z,31.53
2022-11-14T11:47:02.052Z,24.93
2022-11-14T11:50:06.120Z,10.80
2022-11-14T11:53:19.433Z,11.73
2022-11-14T11:56:26.961Z,13.13
2022-11-14T11:59:35.841Z,13.13
2022-11-14T12:02:49.502Z,13.50
2022-11-14T12:06:03.898Z,14.23
2022-11-14T12:09:16.403Z,9.27
2022-11-14T12:12:28.662Z,14.60
2022-11-14T12:15:44.777Z,10.70
2022-11-14T12:19:10.385Z,12.20
2022-11-14T12:22:44.809Z,12.83
2022-11-14T12:26:07.676Z,13.00
2022-11-14T12:29:32.064Z,13.13
2022-11-14T12:32:40.051Z,16.07
2022-11-14T12:35:52.431Z,10.67
2022-11-14T12:38:56.911Z,14.77
2022-11-14T12:42:06.489Z,15.60
2022-11-14T12:45:42.521Z,13.83
2022-11-14T12:48:46.404Z,12.20
2022-11-14T12:51:51.300Z,11.33
2022-11-14T12:54:54.054Z,11.10
2022-11-14T12:58:07.150Z,11.27
2022-11-14T13:01:24.471Z,10.83
2022-11-14T13:04:37.235Z,13.80
2022-11-14T13:07:49.351Z,10.03
2022-11-14T13:10:52.259Z,16.67
2022-11-14T13:14:20.630Z,12.43
2022-11-14T13:17:45.060Z,12.87
2022-11-14T13:21:13.662Z,17.10
2022-11-14T13:24:17.242Z,15.53
2022-11-14T13:27:52.347Z,12.80
2022-11-14T13:31:20.829Z,17.97
2022-11-14T13:34:37.277Z,15.07
2022-11-14T13:38:09.644Z,16.77
2022-11-14T13:41:46.691Z,23.90
2022-11-14T13:45:15.271Z,15.43
2022-11-14T13:48:47.657Z,14.20
2022-11-14T13:51:53.783Z,15.17
2022-11-14T13:54:56.996Z,13.13
2022-11-14T13:58:15.661Z,15.23
2022-11-14T14:01:40.091Z,8.40
2022-11-14T14:04:54.936Z,9.97
2022-11-14T14:08:12.535Z,8.67
2022-11-14T14:11:35.093Z,14.83
2022-11-14T14:14:57.125Z,18.40
2022-11-14T14:18:09.253Z,16.57
2022-11-14T14:21:26.657Z,14.53
2022-11-14T14:24:47.018Z,23.93
2022-11-14T14:28:02.670Z,14.63
2022-11-14T14:31:12.148Z,22.57
2022-11-14T14:34:23.616Z,9.17
2022-11-14T14:37:29.700Z,16.60
2022-11-14T14:40:34.466Z,15.27
2022-11-14T14:43:38.016Z,15.03
2022-11-14T14:46:40.841Z,10.83
2022-11-14T14:49:44.284Z,18.20
2022-11-14T14:52:56.656Z,14.90
2022-11-14T14:56:02.219Z,12.50
2022-11-14T14:59:17.304Z,16.30
2022-11-14T15:02:27.783Z,9.87
2022-11-14T15:05:31.096Z,13.53
2022-11-14T15:08:38.707Z,13.00
2022-11-14T15:11:44.388Z,10.13
2022-11-14T15:14:48.662Z,13.33
2022-11-14T15:17:51.865Z,13.50
2022-11-14T15:21:11.814Z,16.17
2022-11-14T15:24:18.645Z,16.67
2022-11-14T15:27:22.168Z,19.37
2022-11-14T15:30:26.939Z,16.17
2022-11-14T15:33:32.503Z,12.50
2022-11-14T15:36:35.327Z,11.10
2022-11-14T15:39:39.738Z,10.63
2022-11-14T15:42:42.709Z,15.07
2022-11-14T15:45:45.475Z,9.97
2022-11-14T15:48:48.323Z,20.43
2022-11-14T15:51:54.538Z,18.87
2022-11-14T15:54:58.639Z,33.60
2022-11-14T15:58:29.210Z,17.10
2022-11-14T16:01:26.319Z,21.80
2022-11-14T16:04:33.265Z,16.20
2022-11-14T16:07:36.199Z,10.73
2022-11-14T16:10:40.924Z,4.47
2022-11-14T16:13:43.655Z,22.20
2022-11-14T16:16:46.450Z,19.50
2022-11-14T16:19:49.215Z,12.43
2022-11-14T16:22:53.946Z,18.57
2022-11-14T16:25:57.967Z,26.97
2022-11-14T16:29:00.980Z,8.13
2022-11-14T16:32:03.738Z,23.53
2022-11-14T16:35:08.511Z,12.53
2022-11-14T16:38:13.683Z,19.37
2022-11-14T16:41:18.272Z,18.33
2022-11-14T16:44:21.867Z,12.20
2022-11-14T16:47:24.662Z,10.20
2022-11-14T16:50:27.791Z,19.77
2022-11-14T16:53:30.868Z,14.73
2022-11-14T16:56:35.229Z,14.67
2022-11-14T16:59:38.059Z,8.93
2022-11-14T17:02:41.600Z,17.07
2022-11-14T17:05:45.715Z,21.07
2022-11-14T17:08:48.729Z,15.90
2022-11-14T17:11:53.069Z,10.27
2022-11-14T17:14:55.795Z,10.70
2022-11-14T17:17:58.891Z,6.90
2022-11-14T17:21:05.839Z,9.93
2022-11-14T17:24:08.796Z,9.77
2022-11-14T17:27:13.774Z,19.37
2022-11-14T17:30:17.583Z,17.07
2022-11-14T17:33:20.368Z,15.57
2022-11-14T17:36:24.149Z,10.33
2022-11-14T17:39:27.219Z,17.93
2022-11-14T17:42:31.313Z,20.43
2022-11-14T17:45:37.879Z,15.47
2022-11-14T17:48:43.545Z,16.23
2022-11-14T17:51:46.623Z,20.20
2022-11-14T17:54:49.321Z,18.27
2022-11-14T17:57:53.514Z,10.40
2022-11-14T18:00:58.603Z,20.03
2022-11-14T18:04:06.112Z,18.80
2022-11-14T18:07:09.734Z,29.13
2022-11-14T18:10:12.746Z,24.70
2022-11-14T18:13:17.121Z,21.57
2022-11-14T18:16:21.453Z,19.73
2022-11-14T18:19:24.295Z,25.17
2022-11-14T18:22:27.709Z,19.47
2022-11-14T18:25:31.440Z,18.77
2022-11-14T18:28:35.548Z,13.83
2022-11-14T18:31:38.237Z,19.93
2022-11-14T18:34:42.023Z,26.10
2022-11-14T18:37:44.751Z,18.43
2022-11-14T18:40:50.643Z,27.77
2022-11-14T18:43:58.032Z,18.37
2022-11-14T18:47:00.808Z,27.60
2022-11-14T18:50:03.914Z,36.67
2022-11-14T18:53:06.717Z,34.53
2022-11-14T18:56:11.619Z,26.73
2022-11-14T18:59:15.684Z,28.10
2022-11-14T19:02:18.673Z,34.17
2022-11-14T19:05:21.467Z,30.20
2022-11-14T19:08:24.230Z,29.67
2022-11-14T19:11:45.380Z,31.07
2022-11-14T19:14:51.638Z,24.10
2022-11-14T19:17:54.433Z,25.57
2022-11-14T19:20:58.479Z,17.87
2022-11-14T19:24:01.340Z,15.17
2022-11-14T19:27:04.251Z,14.23
2022-11-14T19:30:09.967Z,9.70
2022-11-14T19:33:12.999Z,16.37
2022-11-14T19:36:32.332Z,24.30
2022-11-14T19:39:41.645Z,18.00
2022-11-14T19:42:45.102Z,22.23
2022-11-14T19:45:49.796Z,13.13
2022-11-14T19:48:56.933Z,17.00
2022-11-14T19:52:00.471Z,17.87
2022-11-14T19:55:04.576Z,24.10
2022-11-14T19:58:07.625Z,16.80
2022-11-14T20:01:13.545Z,16.13
2022-11-14T20:04:16.363Z,17.00
2022-11-14T20:07:19.179Z,15.93
2022-11-14T20:10:22.016Z,14.03
2022-11-14T20:13:24.938Z,15.13
2022-11-14T20:16:31.081Z,17.30
2022-11-14T20:19:33.839Z,12.17
2022-11-14T20:22:36.611Z,19.40
2022-11-14T20:25:40.599Z,25.40
2022-11-14T20:33:07.357Z,22.43
2022-11-14T20:36:13.835Z,14.90
2022-11-14T20:39:16.678Z,20.60
2022-11-14T20:42:19.452Z,16.67
2022-11-14T20:45:23.989Z,19.10
2022-11-14T20:48:30.165Z,25.13
2022-11-14T20:51:33.392Z,16.17
2022-11-14T20:54:36.667Z,16.20
2022-11-14T20:57:39.737Z,26.87
2022-11-14T21:00:45.113Z,31.00
2022-11-14T21:03:50.087Z,31.60
2022-11-14T21:06:53.138Z,25.03
2022-11-14T21:10:09.857Z,39.90
2022-11-14T21:13:31.209Z,35.30
2022-11-14T21:16:37.042Z,19.43
2022-11-14T21:19:41.418Z,19.77
2022-11-14T21:22:44.442Z,19.77
2022-11-14T21:25:47.223Z,24.37
2022-11-14T21:28:52.362Z,31.00
2022-11-14T21:31:55.693Z,31.23
2022-11-14T21:34:59.831Z,28.07
2022-11-14T21:38:03.308Z,29.43
2022-11-14T21:41:06.651Z,39.57
2022-11-14T21:44:13.130Z,27.40
2022-11-14T21:47:16.348Z,24.53
2022-11-14T21:50:20.540Z,30.47
2022-11-14T21:53:23.674Z,47.50
2022-11-14T21:56:29.049Z,23.10
2022-11-14T21:59:32.127Z,29.03
2022-11-14T22:02:52.669Z,22.87
2022-11-14T22:05:59.790Z,37.60
2022-11-14T22:09:02.582Z,19.27
2022-11-14T22:12:05.815Z,24.43
2022-11-14T22:15:09.615Z,17.10
2022-11-14T22:22:05.982Z,27.53
2022-11-14T22:25:09.988Z,36.63
2022-11-14T22:28:12.707Z,26.30
2022-11-14T22:31:17.205Z,25.63
2022-11-14T22:34:20.650Z,25.77
2022-11-14T22:37:24.725Z,18.13
2022-11-14T22:40:27.698Z,25.50
2022-11-14T22:43:32.215Z,19.87
2022-11-14T22:46:35.075Z,23.83
2022-11-14T22:49:37.826Z,23.00
2022-11-14T22:52:41.857Z,29.77
2022-11-14T22:55:48.904Z,40.83
2022-11-14T22:58:52.037Z,33.93
2022-11-14T23:01:56.259Z,38.00
2022-11-14T23:04:59.002Z,32.17
2022-11-14T23:08:03.469Z,40.23
2022-11-14T23:11:08.424Z,28.90
2022-11-14T23:14:14.371Z,25.70
2022-11-14T23:17:17.240Z,30.23
2022-11-14T23:20:20.669Z,16.50
2022-11-14T23:23:24.958Z,22.13
2022-11-14T23:26:29.020Z,30.17
2022-11-14T23:29:32.103Z,20.43
2022-11-14T23:32:35.177Z,21.17
2022-11-14T23:35:37.908Z,17.37
2022-11-14T23:38:42.313Z,18.53
2022-11-14T23:41:45.355Z,17.70
2022-11-14T23:44:48.441Z,17.87
2022-11-14T23:47:51.128Z,18.20
2022-11-14T23:50:55.887Z,21.10
2022-11-14T23:54:00.323Z,18.17
2022-11-14T23:57:04.786Z,18.27
